»·PEaware :: UAL423 KPDX-KDEN

UAL423 :: KPDX-KDEN

FLIGHT INFORMATION

Flight Status: Arrived
Operator:
United Airlines
More flights by this operator :: More flights under this callsign
Pilot: Colin A. (19898)
Aircraft: BOEING 737-700
(B737)
More flights by this aircraft type
Origin: KPDX Portland Intl
United States
Destination: KDEN Denver Intl
United States
More flights between these airports :: More routes between these airports
Route: + /FRNCH FRNCH3
File this flight plan on PilotEdge
Remarks: PBN / A1B1C1D1S1S2 DOF / 180806 REG / N714SB EET / KZLC0029 KZDV0131 OPR / UAL PER / C RMK / TCAS SIMBRIEF
Altitude:
(Current/Filed)
39,000ft
Speed:
(Current/Filed)
438kts
Departed: 05-Aug-18 07:26 PM
Arrived: 05-Aug-18 09:38 PM
Distance/Time
Traveled:
859nm/2:11
Distance/Time
To Go:
Arrived

Flight Plot

Page will automatically refresh every two minutes.

Flight plan parsing failed; only flown route is shown


Map Options




Map Legend


Flown Route
Filed Route
Departure Airport
Arrival Airport
Navaid (VOR, NDB)
Fix

Horizontal Profiles

Position Reports

Time Latitude Longitude Heading Altitude Ground
Speed
05-Aug-18 19:02 0.000000 0.000000 0 0ft 0kts
05-Aug-18 19:03 45.590075 -122.597047 211 38ft 0kts
05-Aug-18 19:04 45.590075 -122.597047 211 38ft 0kts
05-Aug-18 19:05 45.590075 -122.597047 211 38ft 0kts
05-Aug-18 19:06 45.590075 -122.597047 211 38ft 0kts
05-Aug-18 19:07 45.590075 -122.597047 211 38ft 0kts
05-Aug-18 19:08 45.590075 -122.597047 211 38ft 0kts
05-Aug-18 19:09 45.590075 -122.597047 211 38ft 0kts
05-Aug-18 19:10 45.590075 -122.597047 211 38ft 0kts
05-Aug-18 19:11 45.590075 -122.597047 211 38ft 0kts
05-Aug-18 19:12 45.590075 -122.597047 211 38ft 0kts
05-Aug-18 19:13 45.590075 -122.597047 211 38ft 0kts
05-Aug-18 19:14 45.590075 -122.597047 211 38ft 0kts
05-Aug-18 19:15 45.590075 -122.597047 211 38ft 0kts
05-Aug-18 19:16 45.590075 -122.597047 211 38ft 0kts
05-Aug-18 19:17 45.590453 -122.596581 254 38ft 2kts
05-Aug-18 19:18 45.590406 -122.596256 300 38ft 0kts
05-Aug-18 19:19 45.590407 -122.596258 300 38ft 0kts
05-Aug-18 19:20 45.590505 -122.596503 299 37ft 1kts
05-Aug-18 19:21 45.590239 -122.601699 207 38ft 5kts
05-Aug-18 19:22 45.587249 -122.597857 118 38ft 22kts
05-Aug-18 19:23 45.583409 -122.588042 122 38ft 27kts
05-Aug-18 19:24 45.581665 -122.583677 145 38ft 0kts
05-Aug-18 19:25 45.581320 -122.583724 204 38ft 0kts
05-Aug-18 19:26 45.581179 -122.583817 204 38ft 9kts
05-Aug-18 19:27 45.589273 -122.606044 298 289ft 172kts
05-Aug-18 19:28 45.616862 -122.671038 301 3454ft 216kts
05-Aug-18 19:29 45.650194 -122.752906 300 6376ft 248kts
05-Aug-18 19:30 45.665904 -122.846365 259 7089ft 263kts
05-Aug-18 19:31 45.621451 -122.926918 189 7248ft 286kts
05-Aug-18 19:32 45.545947 -122.887262 135 10431ft 301kts
05-Aug-18 19:33 45.503756 -122.772704 112 12972ft 360kts
05-Aug-18 19:34 45.462303 -122.639100 112 14985ft 373kts
05-Aug-18 19:35 45.419403 -122.502234 113 17578ft 382kts
05-Aug-18 19:36 45.375621 -122.361247 112 20789ft 397kts
05-Aug-18 19:37 45.329782 -122.215169 113 23507ft 412kts
05-Aug-18 19:38 45.281715 -122.064468 112 25888ft 424kts
05-Aug-18 19:39 45.235273 -121.908187 108 27859ft 435kts
05-Aug-18 19:40 45.193648 -121.744516 108 29582ft 445kts
05-Aug-18 19:41 45.150626 -121.578505 108 31087ft 452kts
05-Aug-18 19:42 45.107740 -121.412299 108 32920ft 447kts
05-Aug-18 19:43 45.065038 -121.248163 108 34473ft 444kts
05-Aug-18 19:44 45.021974 -121.084496 108 35716ft 445kts
05-Aug-18 19:45 44.978492 -120.920534 109 36810ft 446kts
05-Aug-18 19:46 44.934715 -120.756741 109 37857ft 446kts
05-Aug-18 19:47 44.890534 -120.592528 109 38781ft 447kts
05-Aug-18 19:48 44.845955 -120.428003 110 39019ft 448kts
05-Aug-18 19:49 44.801358 -120.264497 110 39022ft 448kts
05-Aug-18 19:50 44.756647 -120.100942 110 39023ft 449kts
05-Aug-18 19:51 44.711478 -119.937134 110 39025ft 450kts
05-Aug-18 19:52 44.665683 -119.773368 111 39028ft 450kts
05-Aug-18 19:53 44.618758 -119.610062 111 39033ft 450kts
05-Aug-18 19:54 44.570949 -119.447975 112 39039ft 450kts
05-Aug-18 19:55 44.522878 -119.286114 112 39044ft 450kts
05-Aug-18 19:56 44.475306 -119.124113 112 39047ft 451kts
05-Aug-18 19:57 44.427114 -118.961828 112 39049ft 450kts
05-Aug-18 19:58 44.378663 -118.800169 112 39049ft 452kts
05-Aug-18 19:59 44.329824 -118.638391 113 39045ft 452kts
05-Aug-18 20:00 44.280682 -118.476680 113 39039ft 453kts
05-Aug-18 20:01 44.231216 -118.314953 113 39034ft 454kts
05-Aug-18 20:02 44.181348 -118.152932 113 39029ft 454kts
05-Aug-18 20:03 44.131299 -117.991339 113 39023ft 454kts
05-Aug-18 20:04 44.081040 -117.830075 113 39015ft 454kts
05-Aug-18 20:05 44.030445 -117.668737 114 39003ft 454kts
05-Aug-18 20:06 43.979847 -117.508369 114 38986ft 455kts
05-Aug-18 20:07 43.928935 -117.347999 114 38980ft 455kts
05-Aug-18 20:08 43.877477 -117.186882 114 38979ft 456kts
05-Aug-18 20:09 43.825802 -117.026090 115 38977ft 456kts
05-Aug-18 20:10 43.774022 -116.865941 115 38972ft 457kts
05-Aug-18 20:11 43.721882 -116.705633 115 38964ft 457kts
05-Aug-18 20:12 43.669702 -116.545402 115 38957ft 457kts
05-Aug-18 20:13 43.617011 -116.385268 115 38953ft 457kts
05-Aug-18 20:14 43.564102 -116.225968 115 38959ft 457kts
05-Aug-18 20:15 43.528664 -116.057513 105 38962ft 459kts
05-Aug-18 20:16 43.498134 -115.886401 105 38968ft 460kts
05-Aug-18 20:17 43.467243 -115.715351 105 38978ft 461kts
05-Aug-18 20:18 43.436704 -115.543660 105 38985ft 461kts
05-Aug-18 20:19 43.405621 -115.372464 106 38993ft 462kts
05-Aug-18 20:20 43.374065 -115.200861 106 39002ft 462kts
05-Aug-18 20:21 43.342324 -115.030006 106 39017ft 463kts
05-Aug-18 20:22 43.310166 -114.858515 106 39047ft 463kts
05-Aug-18 20:23 43.277834 -114.687652 107 39067ft 463kts
05-Aug-18 20:24 43.245096 -114.516190 107 39073ft 463kts
05-Aug-18 20:25 43.212191 -114.345364 107 39074ft 464kts
05-Aug-18 20:26 43.178975 -114.174434 107 39066ft 464kts
05-Aug-18 20:27 43.145495 -114.003629 107 39056ft 464kts
05-Aug-18 20:28 43.111749 -113.832945 108 39048ft 465kts
05-Aug-18 20:29 43.077655 -113.661987 108 39047ft 465kts
05-Aug-18 20:30 43.043312 -113.491236 108 39041ft 465kts
05-Aug-18 20:31 43.008750 -113.320832 109 39042ft 466kts
05-Aug-18 20:32 42.973875 -113.150316 109 39044ft 466kts
05-Aug-18 20:33 42.939026 -112.979808 109 39046ft 466kts
05-Aug-18 20:34 42.903554 -112.809791 109 39049ft 467kts
05-Aug-18 20:35 42.866173 -112.639830 115 39049ft 464kts
05-Aug-18 20:36 42.813413 -112.479805 118 39049ft 463kts
05-Aug-18 20:37 42.759887 -112.320494 118 39049ft 464kts
05-Aug-18 20:38 42.706504 -112.160962 118 39049ft 464kts
05-Aug-18 20:39 42.652923 -112.000718 119 39058ft 465kts
05-Aug-18 20:40 42.598981 -111.840969 119 39070ft 465kts
05-Aug-18 20:41 42.544705 -111.681373 119 39092ft 466kts
05-Aug-18 20:42 42.490363 -111.522559 119 39101ft 466kts
05-Aug-18 20:43 42.435617 -111.363510 119 39109ft 465kts
05-Aug-18 20:44 42.380725 -111.204945 119 39117ft 466kts
05-Aug-18 20:45 42.334668 -111.072612 120 39123ft 466kts
05-Aug-18 20:46 42.269934 -110.887663 120 39145ft 467kts
05-Aug-18 20:47 42.214197 -110.729394 120 39164ft 468kts
05-Aug-18 20:48 42.167428 -110.597284 120 39172ft 469kts
05-Aug-18 20:49 42.101439 -110.411930 120 39180ft 470kts
05-Aug-18 20:50 42.054126 -110.279776 120 39178ft 471kts
05-Aug-18 20:51 41.997081 -110.121265 120 39177ft 472kts
05-Aug-18 20:52 41.939682 -109.962660 120 39181ft 471kts
05-Aug-18 20:53 41.882224 -109.804769 120 39177ft 471kts
05-Aug-18 20:54 41.824354 -109.646622 120 39159ft 472kts
05-Aug-18 20:55 41.766269 -109.488756 121 39154ft 472kts
05-Aug-18 20:56 41.707942 -109.330325 120 39151ft 473kts
05-Aug-18 20:57 41.649247 -109.172749 121 39149ft 474kts
05-Aug-18 20:58 41.590230 -109.015275 120 39149ft 474kts
05-Aug-18 20:59 41.539855 -108.851191 116 39147ft 477kts
05-Aug-18 21:00 41.489899 -108.687353 116 39147ft 477kts
05-Aug-18 21:01 41.439992 -108.522942 116 39147ft 477kts
05-Aug-18 21:02 41.389611 -108.359904 116 39146ft 477kts
05-Aug-18 21:03 41.337834 -108.196696 120 39146ft 475kts
05-Aug-18 21:04 41.276467 -108.041726 122 39146ft 475kts
05-Aug-18 21:05 41.214690 -107.886442 121 39147ft 475kts
05-Aug-18 21:06 41.153088 -107.731066 121 39157ft 476kts
05-Aug-18 21:07 41.091131 -107.575786 121 39155ft 476kts
05-Aug-18 21:08 41.029344 -107.420393 121 39165ft 477kts
05-Aug-18 21:09 40.967108 -107.264647 121 39167ft 478kts
05-Aug-18 21:10 40.904734 -107.109772 121 39181ft 478kts
05-Aug-18 21:11 40.841528 -106.953757 121 37051ft 479kts
05-Aug-18 21:12 40.767477 -106.772025 121 34416ft 483kts
05-Aug-18 21:13 40.714973 -106.643835 121 32583ft 470kts
05-Aug-18 21:14 40.653703 -106.494918 121 30544ft 455kts
05-Aug-18 21:15 40.594306 -106.351054 120 28546ft 441kts
05-Aug-18 21:16 40.536529 -106.211446 121 26543ft 428kts
05-Aug-18 21:17 40.479935 -106.076230 121 24611ft 416kts
05-Aug-18 21:18 40.436169 -105.939540 104 23108ft 403kts
05-Aug-18 21:19 40.414181 -105.797212 102 21609ft 394kts
05-Aug-18 21:20 40.392158 -105.657726 102 20106ft 386kts
05-Aug-18 21:21 40.370322 -105.521128 102 18604ft 374kts
05-Aug-18 21:22 40.335358 -105.402000 128 17448ft 337kts
05-Aug-18 21:23 40.275599 -105.309154 131 16947ft 334kts
05-Aug-18 21:24 40.216277 -105.216412 131 16444ft 332kts
05-Aug-18 21:25 40.157025 -105.123566 131 15497ft 329kts
05-Aug-18 21:26 40.099156 -105.033327 131 14547ft 320kts
05-Aug-18 21:27 40.042193 -104.944930 131 13595ft 315kts
05-Aug-18 21:28 39.986206 -104.858051 131 12675ft 306kts
05-Aug-18 21:29 39.921282 -104.806880 176 12029ft 265kts
05-Aug-18 21:30 39.849591 -104.807293 181 11481ft 268kts
05-Aug-18 21:31 39.776639 -104.809242 181 10839ft 249kts
05-Aug-18 21:32 39.707033 -104.811078 181 10145ft 250kts
05-Aug-18 21:33 39.638105 -104.810644 161 9118ft 246kts
05-Aug-18 21:34 39.621443 -104.732023 69 8115ft 247kts
05-Aug-18 21:35 39.675775 -104.681178 28 7136ft 240kts
05-Aug-18 21:36 39.738440 -104.661366 0 6852ft 241kts
05-Aug-18 21:37 39.802873 -104.660792 0 5964ft 203kts
05-Aug-18 21:38 39.844990 -104.660406 0 5439ft 61kts
05-Aug-18 21:39 39.848541 -104.661203 330 5439ft 3kts
05-Aug-18 21:40 39.850698 -104.662432 358 5439ft 13kts
05-Aug-18 21:41 39.856140 -104.662361 2 5439ft 18kts
05-Aug-18 21:42 39.860132 -104.664005 269 5439ft 17kts
05-Aug-18 21:43 39.860538 -104.670274 269 5439ft 24kts
05-Aug-18 21:44 39.860512 -104.675356 262 5439ft 19kts
05-Aug-18 21:45 39.859331 -104.678018 179 5439ft 0kts

Navigation Log

Ident Type
Flight plan parsing failed, navigation log unavailable